WEATHER DATA

TODAY
Time Temp. Dewp. Hum. Wind dir Wind speed Wind gust Bar.
00:02 16.9 10.7 67 0 0 1023.8
00:12 16.7 10.5 67 0 0 1023.8
00:22 16.4 10.3 67 0 0 1023.8
00:33 16.4 10.3 67 0 0 1023.9
00:43 16.4 10.3 67 0 0 1024
00:53 16.4 10.3 67 0 0 1024
01:03 16.1 10 67 0 0 1024.1
01:13 15.8 9.7 67 0 0 1024.1
01:23 15.5 9.8 69 0 0 1024.1
01:33 15.3 9.7 69 0 0 1024.1
01:44 15.1 9.7 70 0 0 1024.1
01:53 14.9 9.5 70 0 0 1024.1
02:03 14.6 9.4 71 0 0 1024.1
02:14 14.3 9.3 72 0 0 1024.1
02:24 14 9 72 0 0 1024.1
02:34 13.8 8.8 72 0 0 1024.1
02:43 13.6 8.9 73 0 0 1024.1
02:54 13.4 8.7 73 0 0 1024.1
03:04 13.2 8.5 73 0 0 1024.1
03:14 13.2 8.5 73 0 0 1024
03:24 13 8.5 74 0 0 1023.9
03:35 12.9 8.4 74 0 0 1023.9
03:44 12.8 8.3 74 0 0 1023.9
03:54 12.7 8.2 74 0 0 1023.9
04:05 12.7 8.2 74 0 0 1023.8
04:15 12.6 8.3 75 0 0 1023.8
04:25 12.6 8.3 75 0 0 1023.8
04:35 12.5 8.2 75 0 0 1023.8
04:45 12.3 8 75 0 0 1023.8
04:55 12.1 8 76 0 0 1023.9
05:05 12 7.9 76 0 0 1023.9
05:16 12.1 8 76 0 0 1024
05:26 12.2 8.1 76 0 0 1024.1
05:45 12.1 8 76 0 0 1024.1
05:56 12.2 8.1 76 0 0 1024
06:16 12.1 8 76 0 0 1024.1
06:26 12.2 8.1 76 0 0 1024
06:46 12.3 8.4 77 0 0 1024.1
06:56 12.4 8.5 77 0 0 1024.1
07:07 12.5 8.6 77 0 0 1024.1
07:17 12.6 8.7 77 0 0 1024.2
07:26 12.6 8.7 77 0 0 1024.2
07:37 12.7 8.8 77 0 0 1024.2
07:47 12.8 8.9 77 0 0 1024.2
07:57 12.9 9.2 78 0 0 1024.2
08:07 13.1 9.4 78 0 0 1024.3
08:27 14.1 10.3 78 0 0 1024.4
08:37 14.6 10.6 77 0 0 1024.4
08:47 15.1 11.1 77 0 0 1024.3
08:58 15.8 11.8 77 0 0 1024.3
09:08 17.1 12.8 76 0 0 1024.3
09:17 18.6 13.9 74 0 0 1024.2
09:28 19.7 14.5 72 0 0 1024.2
09:38 19.7 14.1 70 0 0 1024.2
09:48 20.5 15.1 71 0 0 1024.2
09:58 20.9 14.8 68 0 0 1024.4
10:08 21 14.9 68 0 0 1024.4
10:18 21.1 14.7 67 0 0 1024.4
10:28 20.9 14.5 67 0 0 1024.5
10:39 21.6 15.4 68 0 0 1024.4
10:49 22.3 15.9 67 0 0 1024.6
10:58 22.4 15.3 64 0 0 1024.7
11:08 21.9 14.8 64 0 0 1024.9
11:19 22 15.4 66 0 0 1024.9
11:29 22.4 15 63 0 0 1025
11:39 22 15.4 66 0 0 1025
11:49 22.6 15.7 65 0 0 1025
11:59 22.4 15.3 64 0 0 1025.1
12:09 22.3 15.4 65 0 0 1025
12:19 22.5 15.8 66 0 0 1025
12:30 22.5 15.8 66 0 0 1024.9
12:40 23.1 15.7 63 0 0 1024.9
12:49 23.3 15.6 62 0 0 1024.7
12:59 23.4 15.2 60 0 0 1024.6
13:10 23.9 15.9 61 0 0 1024.6
13:20 23.5 15.6 61 0 0 1024.5
13:30 23.7 15.5 60 0 0 1024.6
13:40 23.6 15.9 62 0 0 1024.5
13:50 23.7 16.2 63 0 0 1024.6
14:00 23.8 15.8 61 0 0 1024.6
14:10 23.9 16.4 63 0 0 1024.5
14:21 24.4 16.4 61 0 0 1024.5
14:31 24.7 16.7 61 0 0 1024.4
14:40 25 17 61 0 0 1024.3
14:51 25.6 16.7 58 0 0 1024.3
15:01 25.9 16.5 56 0 0 1024.2
15:11 25.1 16.8 60 0 0 1024.2
15:21 25.6 16.5 57 0 0 1024.2
15:32 25.8 16.4 56 0 0 1024.2
15:41 26 16.5 56 0 0 1024

DAY STATISTIC

2022-07-06
TEMPERATURE
AVERAGE
17.7
HIGH
26.0
15:41
LOW
12.0
05:05
PRESSURE
AVERAGE
1024.3
HIGH
1025.1
11:59
LOW
1023.8
00:02
DEWPOINT
AVERAGE
11.9
HIGH
17.0
14:40
LOW
7.9
05:05
HUMIDITY
AVERAGE
69
HIGH
78
07:57
LOW
56
15:01
WIND SPEED
AVERAGE
0.0
HIGH
0.0
13:55
WIND GUST
AVERAGE
0.0
HIGH
0.0
13:55
WIND DIRECTION
PREVAILING
%
TEMPERATURE (°C)
LOW
12.0
HIGH
26.0
AVERAGE
17.7
PRESSURE (hpa)
LOW
1023.8
HIGH
1025.1
AVERAGE
1024.3
DEVICE